createdAt,value
2019-03-06T00:00:41.177Z,100732.23
2019-03-06T00:03:08.424Z,100728.13
2019-03-06T00:05:36.063Z,100727.25
2019-03-06T00:08:03.478Z,100722.99
2019-03-06T00:10:31.374Z,100727.91
2019-03-06T00:12:58.743Z,100717.96
2019-03-06T00:15:26.028Z,100716.33
2019-03-06T00:17:53.238Z,100713.38
2019-03-06T00:20:20.775Z,100709.93
2019-03-06T00:22:48.059Z,100705.26
2019-03-06T00:25:15.358Z,100702.64
2019-03-06T00:27:42.660Z,100703.20
2019-03-06T00:30:10.082Z,100699.37
2019-03-06T00:32:37.360Z,100697.22
2019-03-06T00:35:07.281Z,100692.97
2019-03-06T00:37:34.524Z,100701.61
2019-03-06T00:40:08.496Z,100698.25
2019-03-06T00:42:40.362Z,100694.41
2019-03-06T00:45:08.167Z,100687.66
2019-03-06T00:47:35.442Z,100689.94
2019-03-06T00:50:02.902Z,100683.12
2019-03-06T00:52:30.167Z,100687.13
2019-03-06T00:54:57.446Z,100687.05
2019-03-06T00:57:24.709Z,100684.72
2019-03-06T00:59:51.988Z,100682.85
2019-03-06T01:02:19.257Z,100680.04
2019-03-06T01:04:46.502Z,100681.27
2019-03-06T01:07:13.809Z,100674.81
2019-03-06T01:09:41.074Z,100661.33
2019-03-06T01:12:08.731Z,100662.38
2019-03-06T01:14:36.002Z,100667.80
2019-03-06T01:17:03.295Z,100662.18
2019-03-06T01:19:30.589Z,100663.20
2019-03-06T01:21:57.838Z,100660.34
2019-03-06T01:24:25.088Z,100665.75
2019-03-06T01:26:52.564Z,100665.28
2019-03-06T01:29:19.901Z,100659.30
2019-03-06T01:31:47.451Z,100660.34
2019-03-06T01:34:40.010Z,100650.81
2019-03-06T01:37:18.219Z,100648.75
2019-03-06T01:39:53.892Z,100641.83
2019-03-06T01:42:40.583Z,100638.84
2019-03-06T01:45:10.158Z,100632.31
2019-03-06T01:47:37.380Z,100631.92
2019-03-06T01:50:06.740Z,100628.55
2019-03-06T01:52:34.030Z,100625.98
2019-03-06T01:55:03.753Z,100625.44
2019-03-06T01:57:30.980Z,100630.62
2019-03-06T01:59:58.258Z,100629.44
2019-03-06T02:02:25.661Z,100629.70
2019-03-06T02:04:52.919Z,100617.13
2019-03-06T02:07:22.505Z,100616.41
2019-03-06T02:09:49.801Z,100608.56
2019-03-06T02:12:17.058Z,100606.03
2019-03-06T02:14:44.310Z,100598.78
2019-03-06T02:17:11.690Z,100594.09
2019-03-06T02:19:39.074Z,100594.38
2019-03-06T02:22:06.458Z,100595.89
2019-03-06T02:24:33.730Z,100592.98
2019-03-06T02:27:01.028Z,100584.66
2019-03-06T02:29:28.320Z,100574.80
2019-03-06T02:31:55.604Z,100568.85
2019-03-06T02:34:22.832Z,100575.02
2019-03-06T02:36:50.081Z,100572.17
2019-03-06T02:39:17.359Z,100569.30
2019-03-06T02:41:44.603Z,100566.26
2019-03-06T02:44:11.839Z,100555.80
2019-03-06T02:46:39.111Z,100550.98
2019-03-06T02:49:06.345Z,100555.91
2019-03-06T02:51:33.824Z,100546.48
2019-03-06T02:54:01.076Z,100545.72
2019-03-06T02:56:30.682Z,100545.15
2019-03-06T02:59:17.501Z,100535.37
2019-03-06T03:02:07.321Z,100533.87
2019-03-06T03:04:42.739Z,100526.64
2019-03-06T03:07:15.795Z,100531.09
2019-03-06T03:09:43.048Z,100528.29
2019-03-06T03:12:10.320Z,100534.64
2019-03-06T03:14:37.567Z,100529.48
2019-03-06T03:17:04.862Z,100530.37
2019-03-06T03:19:32.100Z,100527.02
2019-03-06T03:21:59.309Z,100528.40
2019-03-06T03:24:26.926Z,100523.33
2019-03-06T03:26:54.227Z,100520.67
2019-03-06T03:29:21.484Z,100516.78
2019-03-06T03:31:48.763Z,100513.02
2019-03-06T03:34:16.005Z,100506.48
2019-03-06T03:36:43.226Z,100498.89
2019-03-06T03:39:10.495Z,100495.19
2019-03-06T03:41:38.768Z,100496.04
2019-03-06T03:44:06.015Z,100490.68
2019-03-06T03:46:33.275Z,100496.48
2019-03-06T03:49:00.536Z,100492.70
2019-03-06T03:51:27.779Z,100489.36
2019-03-06T03:53:55.166Z,100484.08
2019-03-06T03:56:22.426Z,100483.59
2019-03-06T03:58:49.664Z,100474.23
2019-03-06T04:01:16.972Z,100474.92
2019-03-06T04:03:44.310Z,100476.66
2019-03-06T04:06:11.604Z,100467.28
2019-03-06T04:08:38.895Z,100474.02
2019-03-06T04:11:06.142Z,100469.72
2019-03-06T04:13:33.364Z,100468.31
2019-03-06T04:16:00.664Z,100478.73
2019-03-06T04:18:27.910Z,100478.73
2019-03-06T04:20:55.203Z,100462.25
2019-03-06T04:23:22.451Z,100464.09
2019-03-06T04:25:49.691Z,100463.73
2019-03-06T04:28:16.986Z,100465.46
2019-03-06T04:30:44.358Z,100464.55
2019-03-06T04:33:11.603Z,100456.58
2019-03-06T04:35:38.899Z,100442.95
2019-03-06T04:38:06.142Z,100437.66
2019-03-06T04:40:33.407Z,100434.63
2019-03-06T04:43:00.683Z,100430.11
2019-03-06T04:45:27.919Z,100416.45
2019-03-06T04:47:55.168Z,100420.03
2019-03-06T04:50:22.460Z,100415.43
2019-03-06T04:52:49.694Z,100402.63
2019-03-06T04:55:16.988Z,100404.70
2019-03-06T04:57:44.230Z,100407.52
2019-03-06T05:00:11.696Z,100408.20
2019-03-06T05:02:38.972Z,100402.44
2019-03-06T05:05:06.517Z,100403.47
2019-03-06T05:07:33.772Z,100402.20
2019-03-06T05:10:03.639Z,100398.95
2019-03-06T05:12:30.862Z,100394.59
2019-03-06T05:14:58.180Z,100385.78
2019-03-06T05:17:43.733Z,100380.13
2019-03-06T05:20:11.111Z,100380.48
2019-03-06T05:22:38.381Z,100377.16
2019-03-06T05:25:05.767Z,100371.86
2019-03-06T05:27:33.029Z,100356.67
2019-03-06T05:30:00.580Z,100357.73
2019-03-06T05:32:32.192Z,100361.02
2019-03-06T05:35:22.588Z,100361.02
2019-03-06T05:38:05.499Z,100368.00
2019-03-06T05:40:32.800Z,100344.44
2019-03-06T05:43:00.049Z,100342.95
2019-03-06T05:45:27.288Z,100340.01
2019-03-06T05:47:54.562Z,100333.55
2019-03-06T05:50:21.834Z,100332.08
2019-03-06T05:52:49.089Z,100329.98
2019-03-06T05:55:16.335Z,100320.40
2019-03-06T05:57:43.612Z,100317.59
2019-03-06T06:00:11.603Z,100316.18
2019-03-06T06:02:39.083Z,100321.62
2019-03-06T06:05:08.881Z,100323.28
2019-03-06T06:07:36.151Z,100330.97
2019-03-06T06:10:04.202Z,100335.14
2019-03-06T06:12:31.433Z,100337.44
2019-03-06T06:14:58.696Z,100335.16
2019-03-06T06:17:25.948Z,100318.73
2019-03-06T06:19:53.253Z,100314.64
2019-03-06T06:22:30.752Z,100304.59
2019-03-06T06:24:58.015Z,100309.22
2019-03-06T06:27:25.251Z,100303.19
2019-03-06T06:29:52.534Z,100293.86
2019-03-06T06:32:19.783Z,100275.84
2019-03-06T06:34:47.033Z,100272.91
2019-03-06T06:37:14.294Z,100269.44
2019-03-06T06:39:41.544Z,100271.83
2019-03-06T06:42:09.123Z,100262.89
2019-03-06T06:44:36.355Z,100249.50
2019-03-06T06:47:03.614Z,100257.35
2019-03-06T06:49:30.925Z,100257.87
2019-03-06T06:52:13.988Z,100274.57
2019-03-06T06:55:24.834Z,100261.11
2019-03-06T06:58:49.258Z,100253.84
2019-03-06T07:01:58.390Z,100242.00
2019-03-06T07:05:47.811Z,100244.09
2019-03-06T07:08:34.591Z,100233.69
2019-03-06T07:11:34.907Z,100220.00
2019-03-06T07:14:39.846Z,100219.64
2019-03-06T07:17:34.083Z,100231.41
2019-03-06T07:20:07.874Z,100211.45
2019-03-06T07:22:55.728Z,100199.30
2019-03-06T07:25:51.608Z,100191.69
2019-03-06T07:28:38.403Z,100185.66
2019-03-06T07:31:15.416Z,100175.03
2019-03-06T07:33:58.593Z,100170.58
2019-03-06T07:37:03.698Z,100174.91
2019-03-06T07:39:36.466Z,100172.78
2019-03-06T07:42:22.298Z,100170.46
2019-03-06T07:45:49.063Z,100168.72
2019-03-06T07:48:35.839Z,100155.75
2019-03-06T07:51:10.490Z,100155.34
2019-03-06T07:54:06.521Z,100140.48
2019-03-06T07:56:37.339Z,100137.14
2019-03-06T07:59:04.748Z,100139.08
2019-03-06T08:01:34.764Z,100141.13
2019-03-06T08:04:27.573Z,100134.06
2019-03-06T08:07:02.014Z,100141.09
2019-03-06T08:09:29.494Z,100133.86
2019-03-06T08:12:09.612Z,100128.80
2019-03-06T08:14:56.448Z,100131.22
2019-03-06T08:17:52.485Z,100122.92
2019-03-06T08:20:37.687Z,100102.97
2019-03-06T08:23:17.473Z,100098.41
2019-03-06T08:25:44.290Z,100087.58
2019-03-06T08:28:12.377Z,100076.27
2019-03-06T08:30:45.482Z,100084.78
2019-03-06T08:33:18.154Z,100071.56
2019-03-06T08:35:42.040Z,100065.71
2019-03-06T08:38:09.392Z,100059.88
2019-03-06T08:40:36.703Z,100059.88
2019-03-06T08:43:03.944Z,100052.77
2019-03-06T08:45:40.209Z,100041.28
2019-03-06T08:48:14.897Z,100037.38
2019-03-06T08:50:53.735Z,100014.30
2019-03-06T08:53:31.993Z,100024.94
2019-03-06T08:56:21.689Z,100036.36
2019-03-06T08:59:10.114Z,100032.50
2019-03-06T09:02:00.543Z,100040.13
2019-03-06T09:04:58.540Z,100020.92
2019-03-06T09:07:41.380Z,100027.39
2019-03-06T09:10:17.360Z,100013.45
2019-03-06T09:13:19.159Z,100013.45
2019-03-06T09:16:06.292Z,100002.42
2019-03-06T09:18:52.895Z,99988.63
2019-03-06T09:21:45.451Z,99995.38
2019-03-06T09:24:35.018Z,99995.38
2019-03-06T09:27:12.848Z,99980.52
2019-03-06T09:30:02.738Z,99977.65
2019-03-06T09:32:37.293Z,99962.83
2019-03-06T09:35:20.421Z,99948.08
2019-03-06T09:38:11.196Z,99948.08
2019-03-06T09:40:46.310Z,99938.42
2019-03-06T09:43:48.305Z,99937.61
2019-03-06T09:46:27.501Z,99928.49
2019-03-06T09:49:12.535Z,99928.49
2019-03-06T09:51:52.256Z,99922.23
2019-03-06T09:54:35.323Z,99902.30
2019-03-06T09:57:25.043Z,99882.20
2019-03-06T10:00:10.351Z,99887.33
2019-03-06T10:02:45.741Z,99880.63
2019-03-06T10:05:28.046Z,99868.87
2019-03-06T10:08:20.760Z,99871.94
2019-03-06T10:10:57.782Z,99863.19
2019-03-06T10:13:30.898Z,99852.52
2019-03-06T10:16:20.706Z,99852.52
2019-03-06T10:19:02.962Z,99853.34
2019-03-06T10:21:30.264Z,99844.26
2019-03-06T10:23:57.514Z,99840.39
2019-03-06T10:26:25.086Z,99834.81
2019-03-06T10:28:52.396Z,99856.84
2019-03-06T10:31:19.790Z,99858.66
2019-03-06T10:33:47.160Z,99855.98
2019-03-06T10:36:14.428Z,99855.70
2019-03-06T10:38:41.719Z,99852.20
2019-03-06T10:41:10.491Z,99855.09
2019-03-06T10:43:38.992Z,99851.29
2019-03-06T10:46:06.485Z,99847.95
2019-03-06T10:48:33.722Z,99847.95
2019-03-06T10:51:01.013Z,99847.61
2019-03-06T10:53:28.449Z,99836.84
2019-03-06T10:55:55.716Z,99830.86
2019-03-06T10:58:22.954Z,99818.30
2019-03-06T11:00:54.203Z,99807.77
2019-03-06T11:03:25.449Z,99798.67
2019-03-06T11:05:52.899Z,99792.14
2019-03-06T11:08:20.793Z,99800.72
2019-03-06T11:10:48.171Z,99796.87
2019-03-06T11:13:15.554Z,99788.58
2019-03-06T11:15:42.907Z,99784.33
2019-03-06T11:18:10.696Z,99779.47
2019-03-06T11:20:40.612Z,99781.86
2019-03-06T11:23:08.193Z,99772.89
2019-03-06T11:25:36.553Z,99758.59
2019-03-06T11:28:05.921Z,99754.32
2019-03-06T11:30:37.026Z,99732.17
2019-03-06T11:33:05.934Z,99728.05
2019-03-06T11:35:34.194Z,99728.05
2019-03-06T11:38:01.512Z,99727.66
2019-03-06T11:40:29.326Z,99726.41
2019-03-06T11:42:56.595Z,99717.75
2019-03-06T11:45:23.903Z,99711.20
2019-03-06T11:47:51.295Z,99707.70
2019-03-06T11:50:19.346Z,99695.38
2019-03-06T11:52:46.839Z,99688.03
2019-03-06T11:55:15.206Z,99698.89
2019-03-06T11:57:43.627Z,99686.31
2019-03-06T12:00:23.907Z,99690.29
2019-03-06T12:02:52.356Z,99673.97
2019-03-06T12:05:21.543Z,99676.35
2019-03-06T12:07:49.098Z,99677.29
2019-03-06T12:10:17.957Z,99665.94
2019-03-06T12:12:45.747Z,99670.03
2019-03-06T12:15:14.533Z,99659.10
2019-03-06T12:17:42.005Z,99659.10
2019-03-06T12:20:09.485Z,99662.22
2019-03-06T12:22:36.732Z,99667.84
2019-03-06T12:25:06.201Z,99658.27
2019-03-06T12:27:34.039Z,99660.88
2019-03-06T12:30:01.357Z,99657.42
2019-03-06T12:32:28.684Z,99647.33
2019-03-06T12:34:55.936Z,99643.84
2019-03-06T12:37:23.335Z,99628.61
2019-03-06T12:39:50.619Z,99635.09
2019-03-06T12:42:17.864Z,99631.09
2019-03-06T12:44:45.141Z,99628.92
2019-03-06T12:47:12.696Z,99620.13
2019-03-06T12:49:40.034Z,99626.21
2019-03-06T12:52:07.303Z,99610.03
2019-03-06T12:54:34.679Z,99624.05
2019-03-06T12:57:02.071Z,99614.00
2019-03-06T12:59:31.175Z,99608.73
2019-03-06T13:01:58.733Z,99595.16
2019-03-06T13:04:26.038Z,99591.72
2019-03-06T13:06:53.271Z,99596.48
2019-03-06T13:09:22.591Z,99596.48
2019-03-06T13:11:49.943Z,99583.38
2019-03-06T13:14:18.670Z,99580.67
2019-03-06T13:16:46.047Z,99581.99
2019-03-06T13:19:13.368Z,99568.87
2019-03-06T13:21:40.608Z,99557.44
2019-03-06T13:24:08.044Z,99556.58
2019-03-06T13:26:35.351Z,99556.58
2019-03-06T13:29:02.905Z,99553.97
2019-03-06T13:31:30.305Z,99553.95
2019-03-06T13:34:11.211Z,99548.27
2019-03-06T13:36:38.539Z,99545.70
2019-03-06T13:39:07.277Z,99546.49
2019-03-06T13:41:34.579Z,99535.84
2019-03-06T13:44:01.851Z,99535.84
2019-03-06T13:46:29.295Z,99537.14
2019-03-06T13:48:56.585Z,99538.92
2019-03-06T13:51:23.812Z,99543.23
2019-03-06T13:53:51.069Z,99537.95
2019-03-06T13:56:18.353Z,99540.18
2019-03-06T13:58:45.643Z,99545.92
2019-03-06T14:01:13.589Z,99549.35
2019-03-06T14:03:41.171Z,99542.27
2019-03-06T14:06:08.563Z,99540.94
2019-03-06T14:08:35.841Z,99538.27
2019-03-06T14:11:03.584Z,99525.91
2019-03-06T14:13:32.936Z,99539.97
2019-03-06T14:16:06.779Z,99539.48
2019-03-06T14:18:34.659Z,99522.35
2019-03-06T14:21:02.188Z,99531.16
2019-03-06T14:23:35.042Z,99531.16
2019-03-06T14:25:59.372Z,99528.92
2019-03-06T14:28:29.788Z,99527.69
2019-03-06T14:30:57.237Z,99526.76
2019-03-06T14:33:24.706Z,99519.84
2019-03-06T14:35:52.463Z,99517.55
2019-03-06T14:38:22.158Z,99512.26
2019-03-06T14:40:52.579Z,99509.19
2019-03-06T14:43:20.834Z,99509.19
2019-03-06T14:45:49.851Z,99508.32
2019-03-06T14:48:17.636Z,99514.89
2019-03-06T14:50:45.107Z,99508.78
2019-03-06T14:53:12.531Z,99501.81
2019-03-06T14:55:40.665Z,99497.28
2019-03-06T14:58:08.193Z,99497.28
2019-03-06T15:00:35.448Z,99503.00
2019-03-06T15:03:02.832Z,99495.55
2019-03-06T15:05:30.070Z,99481.83
2019-03-06T15:07:57.546Z,99496.91
2019-03-06T15:10:24.881Z,99496.02
2019-03-06T15:12:54.119Z,99496.02
2019-03-06T15:15:22.744Z,99488.53
2019-03-06T15:17:50.011Z,99479.76
2019-03-06T15:20:17.930Z,99490.23
2019-03-06T15:22:45.780Z,99489.84
2019-03-06T15:25:17.952Z,99487.11
2019-03-06T15:27:45.582Z,99489.33
2019-03-06T15:30:14.392Z,99481.90
2019-03-06T15:32:42.232Z,99481.90
2019-03-06T15:35:10.588Z,99477.95
2019-03-06T15:37:38.428Z,99474.96
2019-03-06T15:40:09.259Z,99468.47
2019-03-06T15:42:36.583Z,99473.67
2019-03-06T15:45:04.725Z,99467.13
2019-03-06T15:47:33.915Z,99457.77
2019-03-06T15:50:01.410Z,99457.77
2019-03-06T15:52:29.159Z,99468.34
2019-03-06T15:54:59.223Z,99460.37
2019-03-06T15:57:26.516Z,99453.52
2019-03-06T15:59:53.767Z,99453.52
2019-03-06T16:02:21.173Z,99430.30
2019-03-06T16:04:48.432Z,99440.89
2019-03-06T16:07:17.466Z,99442.63
2019-03-06T16:09:44.923Z,99440.45
2019-03-06T16:12:12.485Z,99426.27
2019-03-06T16:14:39.943Z,99426.27
2019-03-06T16:17:07.345Z,99421.52
2019-03-06T16:19:34.582Z,99421.52
2019-03-06T16:22:03.314Z,99410.09
2019-03-06T16:24:30.870Z,99410.09
2019-03-06T16:26:58.219Z,99407.53
2019-03-06T16:29:25.561Z,99393.95
2019-03-06T16:31:52.877Z,99397.97
2019-03-06T16:34:20.160Z,99395.36
2019-03-06T16:36:47.479Z,99392.31
2019-03-06T16:39:14.831Z,99385.33
2019-03-06T16:41:42.083Z,99384.87
2019-03-06T16:44:09.498Z,99384.87
2019-03-06T16:46:36.806Z,99392.38
2019-03-06T16:49:04.146Z,99394.02
2019-03-06T16:51:31.393Z,99379.52
2019-03-06T16:53:58.804Z,99377.27
2019-03-06T16:56:26.344Z,99375.02
2019-03-06T16:58:55.677Z,99372.89
2019-03-06T17:01:24.255Z,99372.41
2019-03-06T17:03:51.527Z,99371.09
2019-03-06T17:06:22.342Z,99362.37
2019-03-06T17:08:49.665Z,99362.37
2019-03-06T17:11:17.120Z,99365.88
2019-03-06T17:13:44.502Z,99362.34
2019-03-06T17:16:11.856Z,99361.94
2019-03-06T17:18:39.101Z,99343.94
2019-03-06T17:21:06.594Z,99355.36
2019-03-06T17:23:33.973Z,99354.93
2019-03-06T17:26:01.236Z,99347.92
2019-03-06T17:28:28.889Z,99337.87
2019-03-06T17:30:56.587Z,99351.91
2019-03-06T17:33:23.878Z,99334.73
2019-03-06T17:35:52.252Z,99334.73
2019-03-06T17:38:20.583Z,99347.50
2019-03-06T17:40:47.932Z,99349.23
2019-03-06T17:43:15.416Z,99350.13
2019-03-06T17:45:44.791Z,99346.59
2019-03-06T17:48:12.179Z,99350.12
2019-03-06T17:50:39.544Z,99350.12
2019-03-06T17:53:06.922Z,99344.35
2019-03-06T17:55:34.387Z,99351.42
2019-03-06T17:58:01.743Z,99346.56
2019-03-06T18:00:37.628Z,99347.80
2019-03-06T18:03:05.026Z,99347.80
2019-03-06T18:05:32.419Z,99340.84
2019-03-06T18:07:59.708Z,99350.50
2019-03-06T18:10:26.986Z,99349.19
2019-03-06T18:12:54.336Z,99349.19
2019-03-06T18:15:21.711Z,99344.83
2019-03-06T18:17:48.965Z,99339.42
2019-03-06T18:20:16.518Z,99343.36
2019-03-06T18:22:44.097Z,99337.66
2019-03-06T18:25:13.383Z,99339.48
2019-03-06T18:27:40.622Z,99325.02
2019-03-06T18:30:09.900Z,99334.70
2019-03-06T18:32:37.215Z,99341.25
2019-03-06T18:35:04.714Z,99333.42
2019-03-06T18:37:31.987Z,99335.17
2019-03-06T18:39:59.584Z,99324.70
2019-03-06T18:42:26.837Z,99333.02
2019-03-06T18:44:54.117Z,99319.36
2019-03-06T18:47:21.525Z,99323.72
2019-03-06T18:49:48.873Z,99323.73
2019-03-06T18:52:16.112Z,99324.17
2019-03-06T18:54:43.480Z,99323.72
2019-03-06T18:57:13.392Z,99314.41
2019-03-06T18:59:40.802Z,99313.97
2019-03-06T19:02:08.066Z,99315.70
2019-03-06T19:04:35.333Z,99303.80
2019-03-06T19:07:02.612Z,99303.80
2019-03-06T19:09:29.910Z,99311.68
2019-03-06T19:11:57.182Z,99311.62
2019-03-06T19:14:24.418Z,99314.75
2019-03-06T19:16:51.708Z,99305.45
2019-03-06T19:19:18.999Z,99305.45
2019-03-06T19:21:46.362Z,99298.37
2019-03-06T19:24:13.620Z,99298.37
2019-03-06T19:26:40.982Z,99302.38
2019-03-06T19:29:08.374Z,99292.66
2019-03-06T19:31:35.635Z,99297.89
2019-03-06T19:34:03.021Z,99306.74
2019-03-06T19:36:30.306Z,99296.16
2019-03-06T19:38:57.547Z,99303.56
2019-03-06T19:41:24.882Z,99309.67
2019-03-06T19:43:52.716Z,99302.67
2019-03-06T19:46:19.991Z,99302.67
2019-03-06T19:48:47.279Z,99305.74
2019-03-06T19:51:14.570Z,99305.74
2019-03-06T19:53:41.829Z,99304.42
2019-03-06T19:56:09.121Z,99304.42
2019-03-06T19:58:36.362Z,99298.33
2019-03-06T20:01:05.722Z,99297.48
2019-03-06T20:03:32.968Z,99297.48
2019-03-06T20:06:00.344Z,99297.93
2019-03-06T20:08:27.624Z,99298.81
2019-03-06T20:10:57.048Z,99292.59
2019-03-06T20:13:24.373Z,99291.84
2019-03-06T20:15:51.635Z,99296.03
2019-03-06T20:18:19.195Z,99296.61
2019-03-06T20:20:46.555Z,99293.02
2019-03-06T20:23:13.829Z,99277.59
2019-03-06T20:25:41.184Z,99277.59
2019-03-06T20:28:08.453Z,99279.92
2019-03-06T20:30:35.903Z,99282.05
2019-03-06T20:33:03.530Z,99273.34
2019-03-06T20:35:30.909Z,99273.34
2019-03-06T20:37:58.566Z,99268.45
2019-03-06T20:40:25.816Z,99264.64
2019-03-06T20:42:53.095Z,99257.27
2019-03-06T20:45:20.542Z,99257.27
2019-03-06T20:47:47.896Z,99252.38
2019-03-06T20:50:15.395Z,99255.92
2019-03-06T20:52:42.931Z,99244.42
2019-03-06T20:55:10.729Z,99251.06
2019-03-06T20:57:38.382Z,99239.16
2019-03-06T21:00:06.762Z,99251.84
2019-03-06T21:02:33.990Z,99243.92
2019-03-06T21:05:02.088Z,99231.25
2019-03-06T21:07:29.371Z,99231.25
2019-03-06T21:09:56.690Z,99247.95
2019-03-06T21:12:23.919Z,99247.95
2019-03-06T21:14:51.159Z,99238.71
2019-03-06T21:17:18.411Z,99235.22
2019-03-06T21:19:45.966Z,99239.97
2019-03-06T21:22:13.258Z,99228.59
2019-03-06T21:24:40.513Z,99224.70
2019-03-06T21:27:07.775Z,99232.17
2019-03-06T21:29:35.123Z,99232.17
2019-03-06T21:32:02.362Z,99231.34
2019-03-06T21:34:29.660Z,99231.28
2019-03-06T21:36:56.911Z,99228.23
2019-03-06T21:39:24.819Z,99229.97
2019-03-06T21:41:52.212Z,99218.56
2019-03-06T21:44:19.501Z,99219.54
2019-03-06T21:46:46.754Z,99208.58
2019-03-06T21:49:14.091Z,99208.58
2019-03-06T21:51:41.324Z,99203.76
2019-03-06T21:54:08.849Z,99204.66
2019-03-06T21:56:36.385Z,99199.38
2019-03-06T21:59:03.802Z,99199.38
2019-03-06T22:01:31.118Z,99212.95
2019-03-06T22:03:58.387Z,99205.09
2019-03-06T22:06:25.851Z,99202.45
2019-03-06T22:08:53.130Z,99205.06
2019-03-06T22:11:20.363Z,99196.72
2019-03-06T22:13:47.866Z,99201.97
2019-03-06T22:16:15.164Z,99181.46
2019-03-06T22:18:42.437Z,99181.46
2019-03-06T22:21:09.699Z,99194.15
2019-03-06T22:23:36.980Z,99187.16
2019-03-06T22:26:04.283Z,99182.31
2019-03-06T22:28:31.614Z,99182.31
2019-03-06T22:30:59.221Z,99189.75
2019-03-06T22:33:26.473Z,99180.55
2019-03-06T22:35:53.758Z,99177.95
2019-03-06T22:38:21.019Z,99177.95
2019-03-06T22:40:48.321Z,99161.75
2019-03-06T22:43:15.621Z,99161.75
2019-03-06T22:45:42.890Z,99172.34
2019-03-06T22:48:12.232Z,99167.08
2019-03-06T22:50:39.587Z,99149.47
2019-03-06T22:53:06.831Z,99154.37
2019-03-06T22:55:34.132Z,99155.23
2019-03-06T22:58:02.719Z,99161.84
2019-03-06T23:00:57.454Z,99155.30
2019-03-06T23:03:26.727Z,99154.37
2019-03-06T23:05:54.242Z,99153.50
2019-03-06T23:08:21.583Z,99156.53
2019-03-06T23:10:48.868Z,99151.25
2019-03-06T23:13:18.715Z,99149.99
2019-03-06T23:15:46.024Z,99126.73
2019-03-06T23:18:13.291Z,99126.73
2019-03-06T23:20:40.548Z,99128.52
2019-03-06T23:23:07.783Z,99134.67
2019-03-06T23:25:36.025Z,99135.09
2019-03-06T23:28:03.384Z,99129.84
2019-03-06T23:30:30.805Z,99133.79
2019-03-06T23:32:58.084Z,99121.95
2019-03-06T23:35:25.356Z,99122.88
2019-03-06T23:37:52.589Z,99118.02
2019-03-06T23:40:19.882Z,99112.36
2019-03-06T23:42:48.102Z,99109.28
2019-03-06T23:45:15.557Z,99109.28
2019-03-06T23:47:42.843Z,99100.94
2019-03-06T23:50:10.329Z,99100.94
2019-03-06T23:52:57.201Z,99099.19
2019-03-06T23:55:25.238Z,99103.55
2019-03-06T23:57:52.682Z,99087.78
